createdAt,value
2023-11-13T00:02:09.251Z,5
2023-11-13T00:08:02.738Z,5
2023-11-13T00:13:54.210Z,5
2023-11-13T00:19:46.999Z,4.9
2023-11-13T00:25:38.685Z,4.9
2023-11-13T00:31:30.280Z,4.9
2023-11-13T00:37:22.932Z,4.9
2023-11-13T00:43:18.594Z,4.9
2023-11-13T00:49:10.471Z,4.9
2023-11-13T00:55:02.810Z,4.9
2023-11-13T01:00:54.012Z,4.9
2023-11-13T01:06:47.694Z,5
2023-11-13T01:12:40.169Z,5
2023-11-13T01:18:31.155Z,5
2023-11-13T01:24:23.019Z,5
2023-11-13T01:30:18.281Z,5
2023-11-13T01:36:10.038Z,5
2023-11-13T01:42:01.893Z,5
2023-11-13T01:47:54.796Z,5
2023-11-13T01:53:46.468Z,5.1
2023-11-13T01:59:37.987Z,5.1
2023-11-13T02:05:30.445Z,5.1
2023-11-13T02:11:21.885Z,5.1
2023-11-13T02:17:13.992Z,5.1
2023-11-13T02:22:50.713Z,5.1
2023-11-13T02:28:42.346Z,5.1
2023-11-13T02:34:34.222Z,5.1
2023-11-13T02:40:25.860Z,5.1
2023-11-13T02:46:17.016Z,5.1
2023-11-13T02:52:09.209Z,5.2
2023-11-13T02:58:01.782Z,5.2
2023-11-13T03:03:54.189Z,5.2
2023-11-13T03:09:45.871Z,5.2
2023-11-13T03:15:22.015Z,5.2
2023-11-13T03:21:13.663Z,5.2
2023-11-13T03:26:50.253Z,5.1
2023-11-13T03:32:42.455Z,5.1
2023-11-13T03:38:19.055Z,5.1
2023-11-13T03:44:10.785Z,5.1
2023-11-13T03:50:03.228Z,5.1
2023-11-13T03:55:55.229Z,5.1
2023-11-13T04:01:47.603Z,5.1
2023-11-13T04:07:40.504Z,5.1
2023-11-13T04:13:31.217Z,5.1
2023-11-13T04:24:59.829Z,5
2023-11-13T04:30:40.210Z,5
2023-11-13T04:36:16.936Z,5
2023-11-13T04:42:09.002Z,4.9
2023-11-13T04:48:01.149Z,4.9
2023-11-13T04:53:52.662Z,4.9
2023-11-13T04:59:48.358Z,4.9
2023-11-13T05:05:41.050Z,4.9
2023-11-13T05:11:33.145Z,4.9
2023-11-13T05:17:27.312Z,4.9
2023-11-13T05:23:19.854Z,4.9
2023-11-13T05:29:11.964Z,4.9
2023-11-13T05:35:04.644Z,4.9
2023-11-13T05:40:55.679Z,4.8
2023-11-13T05:46:48.039Z,4.8
2023-11-13T05:52:42.943Z,4.9
2023-11-13T05:58:35.374Z,4.9
2023-11-13T06:04:27.960Z,5.1
2023-11-13T06:10:23.006Z,5.4
2023-11-13T06:16:14.555Z,5.8
2023-11-13T06:21:50.552Z,6.5
2023-11-13T06:27:45.961Z,7.5
2023-11-13T06:33:40.152Z,8.9
2023-11-13T06:39:17.038Z,10.6
2023-11-13T06:45:09.704Z,26.1
2023-11-13T06:51:02.351Z,35.8
2023-11-13T06:56:54.109Z,34.1
2023-11-13T07:02:47.090Z,38
2023-11-13T07:08:39.111Z,39.2
2023-11-13T07:14:18.513Z,40
2023-11-13T07:20:11.660Z,40.4
2023-11-13T07:26:03.062Z,40.9
2023-11-13T07:31:55.706Z,41.4
2023-11-13T07:37:48.842Z,41.9
2023-11-13T07:43:40.549Z,41.9
2023-11-13T07:49:33.921Z,42.7
2023-11-13T07:55:43.716Z,43.4
2023-11-13T08:01:37.227Z,44
2023-11-13T08:07:37.365Z,44.7
2023-11-13T08:13:30.099Z,45.4
2023-11-13T08:19:21.678Z,45.9
2023-11-13T08:25:14.606Z,46.7
2023-11-13T08:31:08.408Z,47.3
2023-11-13T08:37:02.609Z,48.1
2023-11-13T08:42:52.934Z,48.6
2023-11-13T08:49:00.297Z,49.6
2023-11-13T08:54:53.779Z,50
2023-11-13T09:00:45.581Z,50.8
2023-11-13T09:06:25.452Z,51.4
2023-11-13T09:12:20.015Z,51.9
2023-11-13T09:17:56.795Z,50.9
2023-11-13T09:23:49.537Z,52.6
2023-11-13T09:29:41.267Z,53.4
2023-11-13T09:35:32.612Z,53.2
2023-11-13T09:41:25.696Z,54.4
2023-11-13T09:47:30.719Z,55.1
2023-11-13T09:53:31.543Z,55.8
2023-11-13T09:59:24.191Z,56.4
2023-11-13T10:05:18.368Z,56.9
2023-11-13T10:11:13.188Z,57.6
2023-11-13T10:16:50.171Z,58.1
2023-11-13T10:22:46.005Z,58.6
2023-11-13T10:28:37.516Z,59.1
2023-11-13T10:34:18.996Z,59.6
2023-11-13T10:40:19.073Z,60.3
2023-11-13T10:46:12.874Z,60.6
2023-11-13T10:52:07.249Z,61.1
2023-11-13T10:57:44.176Z,61.5
2023-11-13T11:03:39.559Z,61.9
2023-11-13T11:09:36.534Z,62.3
2023-11-13T11:15:32.749Z,62.8
2023-11-13T11:21:30.950Z,63
2023-11-13T11:27:24.194Z,63.3
2023-11-13T11:33:12.303Z,63.6
2023-11-13T11:39:04.382Z,63.6
2023-11-13T11:44:43.901Z,63.9
2023-11-13T11:50:48.156Z,64.1
2023-11-13T11:56:43.661Z,64.4
2023-11-13T12:02:37.336Z,64.4
2023-11-13T12:08:31.234Z,64.6
2023-11-13T12:14:06.676Z,64.5
2023-11-13T12:20:06.530Z,64.3
2023-11-13T12:26:05.574Z,64.6
2023-11-13T12:31:56.830Z,64.6
2023-11-13T12:43:25.957Z,64.5
2023-11-13T12:49:25.650Z,64.5
2023-11-13T12:55:17.488Z,64.3
2023-11-13T13:01:09.252Z,63.9
2023-11-13T13:07:06.814Z,63.6
2023-11-13T13:13:02.307Z,63.4
2023-11-13T13:19:08.454Z,63.2
2023-11-13T13:25:01.312Z,62.8
2023-11-13T13:30:55.271Z,62.3
2023-11-13T13:36:48.361Z,61.8
2023-11-13T13:42:39.314Z,61.2
2023-11-13T13:48:32.149Z,60.5
2023-11-13T13:54:27.330Z,59.8
2023-11-13T14:00:27.498Z,59
2023-11-13T14:06:27.771Z,56.7
2023-11-13T14:12:37.661Z,52.2
2023-11-13T14:18:33.968Z,48.7
2023-11-13T14:24:29.158Z,45.4
2023-11-13T14:30:07.004Z,42.8
2023-11-13T14:35:44.562Z,40.1
2023-11-13T14:41:22.665Z,37.6
2023-11-13T14:47:16.234Z,35.1
2023-11-13T14:53:13.484Z,32.8
2023-11-13T14:59:08.051Z,30.8
2023-11-13T15:05:01.278Z,28.9
2023-11-13T15:10:53.119Z,27.2
2023-11-13T15:16:45.324Z,25.6
2023-11-13T15:23:00.458Z,24.1
2023-11-13T15:29:04.961Z,22.6
2023-11-13T15:35:05.447Z,21.4
2023-11-13T15:40:57.865Z,20.4
2023-11-13T15:46:34.743Z,19.5
2023-11-13T15:52:11.872Z,18.6
2023-11-13T15:58:04.480Z,17.9
2023-11-13T16:09:53.358Z,15.9
2023-11-13T16:15:46.573Z,14.9
2023-11-13T16:21:26.891Z,14.1
2023-11-13T16:27:18.674Z,13.4
2023-11-13T16:33:11.224Z,12.9
2023-11-13T16:38:45.995Z,12.4
2023-11-13T16:44:38.253Z,12
2023-11-13T16:50:32.915Z,11.6
2023-11-13T16:56:28.490Z,11.2
2023-11-13T17:02:21.059Z,10.8
2023-11-13T17:08:15.682Z,10.5
2023-11-13T17:13:51.765Z,10.2
2023-11-13T17:19:44.895Z,9.9
2023-11-13T17:31:19.293Z,9.4
2023-11-13T17:37:14.173Z,9.3
2023-11-13T17:42:50.425Z,9
2023-11-13T17:48:27.104Z,8.8
2023-11-13T17:54:18.996Z,8.6
2023-11-13T18:00:10.186Z,8.4
2023-11-13T18:06:09.578Z,8.1
2023-11-13T18:11:46.206Z,7.9
2023-11-13T18:17:37.898Z,7.8
2023-11-13T18:23:28.398Z,7.6
2023-11-13T18:29:00.078Z,7.4
2023-11-13T18:34:52.545Z,7.2
2023-11-13T18:40:48.160Z,6.9
2023-11-13T18:46:40.127Z,6.8
2023-11-13T18:52:32.117Z,6.5
2023-11-13T18:58:22.763Z,6.3
2023-11-13T19:04:02.372Z,6.1
2023-11-13T19:10:00.455Z,5.9
2023-11-13T19:15:51.911Z,5.6
2023-11-13T19:21:44.562Z,5.4
2023-11-13T19:27:21.369Z,5.2
2023-11-13T19:32:30.421Z,5
2023-11-13T19:38:18.960Z,4.8
2023-11-13T19:43:39.720Z,4.6
2023-11-13T19:49:42.864Z,4.4
2023-11-13T19:55:29.646Z,4.3
2023-11-13T20:00:52.033Z,4.1
2023-11-13T20:06:17.099Z,4.1
2023-11-13T20:11:54.497Z,3.9
2023-11-13T20:17:31.167Z,3.8
2023-11-13T20:23:04.392Z,3.8
2023-11-13T20:28:58.534Z,3.6
2023-11-13T20:34:44.616Z,3.5
2023-11-13T20:40:20.928Z,3.4
2023-11-13T20:45:57.242Z,3.3
2023-11-13T20:51:35.383Z,3.2
2023-11-13T20:57:10.702Z,3.1
2023-11-13T21:02:34.206Z,3
2023-11-13T21:08:24.189Z,2.9
2023-11-13T21:14:16.221Z,2.8
2023-11-13T21:19:53.058Z,2.8
2023-11-13T21:25:30.444Z,2.7
2023-11-13T21:31:07.014Z,2.6
2023-11-13T21:36:44.209Z,2.6
2023-11-13T21:42:36.140Z,2.5
2023-11-13T21:48:12.712Z,2.5
2023-11-13T21:53:49.340Z,2.4
2023-11-13T21:59:26.284Z,2.4
2023-11-13T22:04:49.743Z,2.4
2023-11-13T22:10:41.456Z,2.3
2023-11-13T22:16:17.851Z,2.3
2023-11-13T22:21:55.605Z,2.2
2023-11-13T22:27:31.824Z,2.1
2023-11-13T22:33:08.411Z,2
2023-11-13T22:38:44.796Z,1.9
2023-11-13T22:44:21.269Z,1.8
2023-11-13T22:49:58.724Z,1.7
2023-11-13T22:55:35.364Z,1.6
2023-11-13T23:01:11.845Z,1.5
2023-11-13T23:06:33.874Z,1.4
2023-11-13T23:12:10.117Z,1.4
2023-11-13T23:17:47.266Z,1.4
2023-11-13T23:23:47.948Z,1.3
2023-11-13T23:29:24.178Z,1.3
2023-11-13T23:35:00.789Z,1.3
2023-11-13T23:40:37.673Z,1.2
2023-11-13T23:46:13.737Z,1.2
2023-11-13T23:51:50.176Z,1.1
2023-11-13T23:57:26.884Z,1.1
